Terminal Aerodrome Forecast
Issued by NWS Cleveland, OH

Home | Current Version | Previous Version | Graphics & Text | Print | Product List | Glossary On
Versions: 1 2 3 4 5 6 7 8 9 10 11 12 13 14 15 16 17 18 19 20 21 22 23
000
FTUS41 KCLE 102339
TAFERI
TAF
KERI 102339Z 1100/1124 22010KT P6SM VCSH SCT025 OVC035
      TEMPO 1102/1104 3SM -SHSN BKN015 OVC025
     FM110400 27012KT 5SM -SHSN SCT006 OVC015
      TEMPO 1104/1108 3/4SM -SHSN OVC006
     FM111100 33008KT P6SM VCSH SCT015 OVC025
     FM111500 22008KT P6SM SCT015 OVC025=

USA.gov is the U.S. government's official web portal to all federal, state and local government web resources and services.